createdAt,value
2023-05-17T00:02:04.323Z,57.08
2023-05-17T00:04:33.422Z,56.93
2023-05-17T00:07:01.114Z,57.96
2023-05-17T00:09:28.706Z,59.43
2023-05-17T00:11:56.969Z,60.40
2023-05-17T00:14:24.651Z,61.27
2023-05-17T00:16:52.791Z,61.72
2023-05-17T00:19:20.689Z,61.73
2023-05-17T00:21:48.357Z,62.14
2023-05-17T00:24:16.127Z,62.49
2023-05-17T00:26:43.762Z,61.47
2023-05-17T00:29:11.264Z,61.04
2023-05-17T00:31:38.754Z,60.78
2023-05-17T00:34:06.403Z,59.32
2023-05-17T00:36:33.927Z,59.60
2023-05-17T00:39:02.900Z,57.67
2023-05-17T00:41:30.560Z,57.26
2023-05-17T00:43:58.149Z,56.78
2023-05-17T00:46:25.901Z,56.35
2023-05-17T00:48:54.215Z,56.09
2023-05-17T00:51:22.856Z,55.69
2023-05-17T00:53:50.931Z,56.73
2023-05-17T00:56:18.823Z,57.10
2023-05-17T00:58:46.818Z,56.93
2023-05-17T01:01:14.721Z,56.83
2023-05-17T01:03:46.547Z,56.75
2023-05-17T01:06:15.170Z,56.62
2023-05-17T01:08:43.689Z,56.68
2023-05-17T01:11:16.505Z,58.04
2023-05-17T01:13:50.200Z,59.06
2023-05-17T01:16:17.962Z,59.29
2023-05-17T01:19:01.653Z,57.60
2023-05-17T01:21:43.230Z,58.93
2023-05-17T01:24:48.983Z,59.40
2023-05-17T01:27:18.989Z,62.43
2023-05-17T01:29:49.761Z,63.42
2023-05-17T01:32:18.185Z,63.98
2023-05-17T01:34:45.711Z,64.44
2023-05-17T01:37:13.554Z,63.19
2023-05-17T01:39:41.747Z,64.15
2023-05-17T01:42:31.253Z,63.79
2023-05-17T01:45:40.559Z,64.73
2023-05-17T01:48:44.296Z,65.28
2023-05-17T01:51:19.047Z,65.11
2023-05-17T01:53:57.326Z,65.32
2023-05-17T01:56:33.729Z,65.77
2023-05-17T01:59:06.789Z,65.57
2023-05-17T02:01:36.566Z,66.53
2023-05-17T02:04:04.283Z,67.84
2023-05-17T02:06:32.889Z,68.97
2023-05-17T02:09:02.937Z,71.15
2023-05-17T02:11:30.912Z,72.00
2023-05-17T02:13:59.042Z,73.27
2023-05-17T02:16:26.573Z,74.67
2023-05-17T02:18:54.221Z,75.42
2023-05-17T02:21:21.852Z,76.16
2023-05-17T02:23:49.381Z,75.70
2023-05-17T02:26:19.712Z,76.35
2023-05-17T02:28:47.276Z,76.67
2023-05-17T02:31:14.878Z,76.36
2023-05-17T02:33:43.131Z,75.83
2023-05-17T02:36:11.222Z,75.14
2023-05-17T02:38:39.516Z,76.48
2023-05-17T02:41:07.037Z,76.45
2023-05-17T02:43:34.742Z,75.89
2023-05-17T02:46:04.590Z,75.54
2023-05-17T02:48:32.316Z,75.73
2023-05-17T02:50:59.850Z,75.61
2023-05-17T02:53:27.526Z,75.76
2023-05-17T02:55:58.191Z,74.91
2023-05-17T02:58:26.020Z,75.05
2023-05-17T03:00:53.699Z,76.71
2023-05-17T03:03:21.418Z,76.80
2023-05-17T03:05:49.181Z,78.20
2023-05-17T03:08:16.784Z,78.98
2023-05-17T03:10:45.678Z,79.00
2023-05-17T03:13:13.442Z,79.23
2023-05-17T03:15:41.320Z,79.74
2023-05-17T03:18:08.997Z,79.84
2023-05-17T03:20:38.590Z,79.50
2023-05-17T03:23:07.055Z,78.54
2023-05-17T03:25:39.789Z,78.96
2023-05-17T03:28:07.310Z,78.65
2023-05-17T03:30:35.143Z,77.86
2023-05-17T03:33:05.534Z,77.13
2023-05-17T03:35:33.460Z,77.28
2023-05-17T03:38:00.997Z,77.01
2023-05-17T03:40:28.977Z,76.99
2023-05-17T03:42:57.799Z,76.41
2023-05-17T03:45:27.612Z,76.69
2023-05-17T03:47:55.454Z,76.42
2023-05-17T03:50:23.825Z,77.64
2023-05-17T03:52:51.286Z,77.07
2023-05-17T03:55:19.656Z,76.68
2023-05-17T03:57:47.495Z,76.30
2023-05-17T04:00:21.280Z,75.97
2023-05-17T04:02:49.343Z,75.77
2023-05-17T04:05:19.372Z,75.00
2023-05-17T04:07:48.600Z,74.69
2023-05-17T04:10:16.331Z,73.56
2023-05-17T04:12:46.226Z,73.16
2023-05-17T04:15:13.863Z,72.09
2023-05-17T04:17:43.089Z,72.03
2023-05-17T04:20:11.489Z,69.94
2023-05-17T04:22:39.681Z,70.63
2023-05-17T04:25:08.487Z,69.88
2023-05-17T04:27:37.401Z,69.03
2023-05-17T04:30:08.072Z,68.17
2023-05-17T04:32:36.021Z,67.64
2023-05-17T04:35:04.763Z,66.80
2023-05-17T04:37:32.862Z,66.54
2023-05-17T04:40:07.998Z,68.61
2023-05-17T04:42:35.823Z,68.24
2023-05-17T04:45:05.538Z,66.87
2023-05-17T04:47:33.186Z,66.23
2023-05-17T04:50:01.473Z,64.98
2023-05-17T04:52:29.231Z,63.06
2023-05-17T04:54:57.064Z,62.96
2023-05-17T04:57:24.634Z,61.69
2023-05-17T04:59:58.709Z,61.73
2023-05-17T05:02:27.307Z,59.45
2023-05-17T05:04:54.965Z,59.08
2023-05-17T05:07:22.597Z,59.26
2023-05-17T05:09:50.551Z,59.15
2023-05-17T05:12:19.415Z,59.22
2023-05-17T05:14:48.174Z,58.22
2023-05-17T05:17:15.872Z,57.85
2023-05-17T05:19:43.545Z,55.78
2023-05-17T05:22:11.661Z,55.72
2023-05-17T05:24:40.199Z,55.58
2023-05-17T05:27:08.041Z,55.09
2023-05-17T05:29:36.861Z,56.08
2023-05-17T05:32:04.667Z,56.17
2023-05-17T05:34:38.978Z,55.80
2023-05-17T05:37:06.733Z,54.88
2023-05-17T05:39:34.794Z,54.64
2023-05-17T05:42:04.335Z,54.53
2023-05-17T05:44:32.792Z,54.19
2023-05-17T05:47:00.935Z,54.89
2023-05-17T05:49:28.567Z,55.51
2023-05-17T05:51:56.415Z,55.33
2023-05-17T05:54:25.948Z,55.23
2023-05-17T05:56:54.621Z,54.60
2023-05-17T05:59:22.339Z,54.18
2023-05-17T06:01:49.966Z,51.72
2023-05-17T06:04:17.512Z,51.76
2023-05-17T06:06:45.183Z,51.18
2023-05-17T06:09:12.927Z,49.88
2023-05-17T06:11:40.544Z,51.03
2023-05-17T06:14:08.509Z,50.44
2023-05-17T06:16:36.459Z,51.42
2023-05-17T06:19:04.520Z,50.51
2023-05-17T06:21:32.455Z,48.99
2023-05-17T06:23:59.982Z,49.58
2023-05-17T06:26:27.654Z,49.81
2023-05-17T06:28:55.151Z,48.67
2023-05-17T06:31:22.724Z,48.84
2023-05-17T06:33:50.392Z,48.51
2023-05-17T06:36:17.902Z,48.87
2023-05-17T06:38:45.479Z,47.63
2023-05-17T06:41:13.266Z,44.45
2023-05-17T06:43:40.930Z,43.22
2023-05-17T06:46:08.624Z,43.19
2023-05-17T06:48:36.414Z,42.36
2023-05-17T06:51:04.044Z,41.91
2023-05-17T06:53:32.220Z,42.22
2023-05-17T06:55:59.856Z,42.24
2023-05-17T06:58:27.408Z,43.40
2023-05-17T07:00:55.033Z,43.15
2023-05-17T07:03:23.001Z,42.24
2023-05-17T07:05:50.649Z,42.71
2023-05-17T07:08:18.390Z,41.53
2023-05-17T07:10:46.552Z,41.90
2023-05-17T07:13:14.189Z,42.26
2023-05-17T07:15:41.775Z,42.95
2023-05-17T07:18:11.265Z,41.87
2023-05-17T07:20:38.985Z,41.08
2023-05-17T07:23:06.730Z,40.45
2023-05-17T07:25:34.369Z,40.04
2023-05-17T07:28:01.912Z,39.88
2023-05-17T07:30:31.526Z,40.87
2023-05-17T07:32:59.625Z,41.02
2023-05-17T07:35:27.260Z,39.73
2023-05-17T07:37:55.124Z,40.05
2023-05-17T07:40:22.766Z,40.24
2023-05-17T07:42:50.651Z,39.83
2023-05-17T07:45:18.768Z,38.49
2023-05-17T07:47:46.424Z,37.92
2023-05-17T07:50:14.091Z,38.67
2023-05-17T07:52:41.793Z,39.29
2023-05-17T07:55:10.128Z,39.96
2023-05-17T07:57:38.114Z,38.98
2023-05-17T08:00:08.898Z,39.69
2023-05-17T08:02:41.349Z,38.50
2023-05-17T08:05:09.703Z,39.05
2023-05-17T08:07:37.868Z,39.27
2023-05-17T08:10:05.935Z,40.36
2023-05-17T08:12:33.856Z,40.89
2023-05-17T08:15:01.436Z,39.36
2023-05-17T08:17:29.254Z,38.55
2023-05-17T08:19:57.870Z,37.84
2023-05-17T08:22:26.504Z,39.03
2023-05-17T08:24:54.083Z,39.49
2023-05-17T08:27:21.709Z,39.74
2023-05-17T08:29:49.604Z,39.31
2023-05-17T08:32:17.285Z,39.12
2023-05-17T08:34:44.858Z,38.79
2023-05-17T08:37:12.548Z,38.97
2023-05-17T08:39:40.265Z,38.19
2023-05-17T08:42:08.409Z,38.21
2023-05-17T08:44:37.235Z,36.05
2023-05-17T08:47:07.651Z,35.65
2023-05-17T08:49:38.116Z,34.50
2023-05-17T08:52:10.212Z,35.18
2023-05-17T08:54:38.054Z,34.48
2023-05-17T08:57:07.407Z,34.09
2023-05-17T08:59:35.457Z,34.60
2023-05-17T09:02:05.768Z,34.32
2023-05-17T09:04:34.294Z,35.44
2023-05-17T09:07:02.069Z,35.84
2023-05-17T09:09:30.006Z,36.33
2023-05-17T09:11:57.563Z,38.57
2023-05-17T09:14:25.161Z,38.00
2023-05-17T09:17:00.105Z,37.68
2023-05-17T09:19:28.244Z,37.51
2023-05-17T09:21:56.148Z,37.38
2023-05-17T09:24:31.016Z,37.64
2023-05-17T09:27:03.726Z,37.60
2023-05-17T09:29:32.775Z,35.90
2023-05-17T09:32:20.997Z,35.41
2023-05-17T09:34:48.763Z,36.76
2023-05-17T09:37:17.635Z,36.40
2023-05-17T09:39:47.040Z,36.01
2023-05-17T09:42:16.864Z,35.36
2023-05-17T09:44:57.657Z,35.26
2023-05-17T09:47:29.289Z,35.74
2023-05-17T09:50:00.715Z,36.40
2023-05-17T09:52:32.363Z,35.23
2023-05-17T09:55:01.148Z,36.23
2023-05-17T09:57:37.902Z,35.99
2023-05-17T10:00:12.420Z,36.21
2023-05-17T10:02:48.327Z,36.75
2023-05-17T10:05:17.930Z,38.13
2023-05-17T10:07:48.066Z,36.63
2023-05-17T10:10:18.211Z,37.08
2023-05-17T10:12:47.455Z,38.67
2023-05-17T10:15:17.838Z,38.65
2023-05-17T10:17:46.302Z,37.23
2023-05-17T10:20:15.725Z,38.61
2023-05-17T10:22:44.062Z,38.41
2023-05-17T10:25:12.631Z,37.37
2023-05-17T10:27:41.927Z,38.51
2023-05-17T10:30:11.603Z,39.01
2023-05-17T10:32:39.933Z,37.91
2023-05-17T10:35:12.026Z,37.50
2023-05-17T10:37:41.364Z,37.47
2023-05-17T10:40:14.034Z,38.06
2023-05-17T10:42:46.940Z,37.65
2023-05-17T10:45:14.948Z,37.05
2023-05-17T10:47:43.622Z,37.62
2023-05-17T10:50:13.331Z,38.43
2023-05-17T10:52:48.916Z,38.05
2023-05-17T10:55:20.978Z,37.13
2023-05-17T10:58:16.140Z,38.47
2023-05-17T11:00:47.557Z,38.06
2023-05-17T11:03:18.568Z,38.63
2023-05-17T11:06:23.333Z,38.62
2023-05-17T11:09:13.860Z,37.76
2023-05-17T11:12:05.509Z,38.85
2023-05-17T11:14:45.644Z,38.58
2023-05-17T11:17:20.762Z,38.17
2023-05-17T11:19:55.034Z,37.32
2023-05-17T11:22:37.260Z,39.05
2023-05-17T11:25:09.294Z,37.83
2023-05-17T11:27:39.891Z,38.15
2023-05-17T11:30:31.808Z,38.97
2023-05-17T11:33:05.717Z,38.25
2023-05-17T11:35:39.575Z,38.21
2023-05-17T11:38:24.510Z,37.70
2023-05-17T11:40:56.905Z,37.36
2023-05-17T11:43:27.428Z,37.18
2023-05-17T11:46:01.724Z,37.00
2023-05-17T11:48:31.623Z,38.04
2023-05-17T11:51:01.518Z,37.57
2023-05-17T11:53:31.253Z,36.74
2023-05-17T11:56:04.181Z,36.73
2023-05-17T11:58:32.193Z,36.65
2023-05-17T12:00:59.764Z,37.16
2023-05-17T12:03:29.251Z,37.55
2023-05-17T12:06:13.253Z,37.60
2023-05-17T12:08:46.487Z,38.35
2023-05-17T12:11:18.963Z,37.88
2023-05-17T12:13:49.138Z,37.94
2023-05-17T12:16:22.611Z,37.20
2023-05-17T12:18:52.150Z,36.63
2023-05-17T12:21:21.471Z,36.69
2023-05-17T12:23:52.090Z,36.95
2023-05-17T12:26:22.468Z,37.90
2023-05-17T12:28:58.168Z,39.39
2023-05-17T12:31:30.137Z,37.89
2023-05-17T12:33:59.447Z,36.49
2023-05-17T12:36:29.824Z,36.74
2023-05-17T12:38:57.821Z,36.16
2023-05-17T12:41:26.783Z,36.38
2023-05-17T12:44:06.314Z,35.95
2023-05-17T12:46:42.164Z,36.54
2023-05-17T12:49:11.968Z,37.30
2023-05-17T12:51:42.404Z,38.17
2023-05-17T12:54:10.604Z,38.65
2023-05-17T12:56:38.332Z,38.81
2023-05-17T12:59:15.462Z,38.26
2023-05-17T13:01:45.739Z,37.94
2023-05-17T13:04:15.186Z,37.63
2023-05-17T13:07:00.020Z,37.75
2023-05-17T13:09:31.043Z,37.07
2023-05-17T13:11:59.757Z,36.56
2023-05-17T13:14:46.515Z,35.95
2023-05-17T13:17:34.713Z,37.63
2023-05-17T13:20:02.457Z,36.39
2023-05-17T13:22:30.317Z,35.73
2023-05-17T13:24:57.868Z,36.21
2023-05-17T13:27:25.512Z,36.48
2023-05-17T13:29:53.268Z,36.94
2023-05-17T13:32:21.332Z,37.18
2023-05-17T13:34:48.886Z,36.99
2023-05-17T13:37:16.524Z,37.83
2023-05-17T13:39:44.133Z,37.13
2023-05-17T13:42:13.119Z,37.69
2023-05-17T13:44:40.838Z,37.72
2023-05-17T13:47:08.526Z,36.93
2023-05-17T13:49:36.350Z,36.65
2023-05-17T13:52:03.943Z,36.71
2023-05-17T13:54:31.840Z,35.83
2023-05-17T13:56:59.526Z,35.45
2023-05-17T13:59:27.640Z,34.96
2023-05-17T14:01:55.211Z,35.84
2023-05-17T14:04:22.862Z,35.94
2023-05-17T14:06:54.119Z,35.57
2023-05-17T14:09:22.683Z,35.36
2023-05-17T14:11:50.290Z,36.57
2023-05-17T14:14:17.923Z,36.18
2023-05-17T14:16:46.011Z,35.92
2023-05-17T14:19:13.624Z,35.51
2023-05-17T14:21:41.204Z,35.16
2023-05-17T14:24:08.768Z,35.99
2023-05-17T14:26:37.288Z,36.06
2023-05-17T14:29:07.977Z,36.54
2023-05-17T14:31:35.697Z,36.90
2023-05-17T14:34:04.017Z,36.87
2023-05-17T14:36:34.021Z,36.86
2023-05-17T14:39:01.788Z,37.68
2023-05-17T14:41:29.561Z,37.09
2023-05-17T14:43:57.170Z,36.89
2023-05-17T14:46:24.908Z,37.15
2023-05-17T14:48:52.628Z,37.13
2023-05-17T14:51:20.370Z,36.65
2023-05-17T14:53:48.216Z,35.35
2023-05-17T14:56:16.878Z,34.43
2023-05-17T14:58:44.602Z,33.28
2023-05-17T15:01:12.256Z,34.00
2023-05-17T15:03:39.911Z,34.51
2023-05-17T15:06:09.533Z,34.96
2023-05-17T15:08:40.766Z,33.94
2023-05-17T15:11:09.622Z,33.82
2023-05-17T15:13:38.263Z,33.12
2023-05-17T15:16:06.301Z,32.42
2023-05-17T15:18:33.960Z,32.56
2023-05-17T15:21:02.660Z,31.78
2023-05-17T15:23:30.430Z,31.47
2023-05-17T15:25:58.089Z,31.63
2023-05-17T15:28:25.797Z,31.64
2023-05-17T15:31:06.412Z,31.39
2023-05-17T15:33:34.161Z,31.15
2023-05-17T15:36:02.100Z,30.82
2023-05-17T15:38:30.031Z,30.78
2023-05-17T15:41:06.617Z,30.75
2023-05-17T15:43:35.100Z,30.61
2023-05-17T15:46:02.647Z,30.68
2023-05-17T15:48:31.105Z,30.95
2023-05-17T15:51:01.368Z,31.85
2023-05-17T15:53:30.021Z,31.68
2023-05-17T15:55:57.641Z,32.38
2023-05-17T15:58:28.068Z,32.94
2023-05-17T16:00:55.979Z,34.17
2023-05-17T16:03:23.530Z,35.33
2023-05-17T16:05:51.679Z,35.21
2023-05-17T16:08:20.449Z,36.14
2023-05-17T16:10:48.104Z,36.80
2023-05-17T16:13:16.324Z,37.38
2023-05-17T16:15:43.918Z,37.87
2023-05-17T16:18:13.815Z,38.26
2023-05-17T16:20:41.998Z,38.54
2023-05-17T16:23:09.942Z,38.59
2023-05-17T16:25:37.695Z,38.98
2023-05-17T16:28:05.402Z,38.81
2023-05-17T16:30:33.330Z,39.36
2023-05-17T16:33:01.403Z,39.89
2023-05-17T16:35:29.347Z,40.21
2023-05-17T16:37:57.034Z,40.23
2023-05-17T16:40:24.607Z,40.18
2023-05-17T16:42:52.111Z,40.71
2023-05-17T16:45:20.078Z,40.57
2023-05-17T16:47:47.682Z,40.64
2023-05-17T16:50:15.327Z,41.29
2023-05-17T16:52:42.941Z,41.31
2023-05-17T16:55:10.557Z,41.17
2023-05-17T16:57:38.415Z,41.62
2023-05-17T17:00:06.699Z,41.56
2023-05-17T17:02:34.525Z,41.86
2023-05-17T17:05:04.454Z,41.89
2023-05-17T17:07:32.683Z,42.54
2023-05-17T17:10:00.321Z,42.51
2023-05-17T17:12:27.912Z,42.67
2023-05-17T17:14:55.936Z,42.87
2023-05-17T17:17:23.491Z,43.11
2023-05-17T17:19:51.299Z,42.90
2023-05-17T17:22:18.906Z,43.25
2023-05-17T17:24:46.538Z,43.56
2023-05-17T17:27:14.214Z,43.25
2023-05-17T17:29:41.802Z,43.60
2023-05-17T17:32:09.609Z,44.50
2023-05-17T17:34:37.496Z,44.26
2023-05-17T17:37:05.498Z,44.33
2023-05-17T17:39:33.526Z,44.52
2023-05-17T17:42:01.959Z,45.34
2023-05-17T17:44:29.720Z,45.32
2023-05-17T17:46:57.254Z,45.28
2023-05-17T17:49:24.919Z,45.61
2023-05-17T17:51:52.744Z,45.72
2023-05-17T17:54:20.409Z,46.08
2023-05-17T17:56:48.012Z,45.90
2023-05-17T17:59:15.536Z,46.60
2023-05-17T18:01:43.912Z,46.54
2023-05-17T18:04:13.656Z,46.37
2023-05-17T18:06:43.801Z,46.54
2023-05-17T18:09:11.593Z,46.76
2023-05-17T18:11:39.557Z,46.56
2023-05-17T18:14:08.216Z,47.39
2023-05-17T18:16:36.278Z,46.59
2023-05-17T18:19:04.003Z,46.93
2023-05-17T18:21:31.766Z,46.60
2023-05-17T18:24:00.418Z,46.99
2023-05-17T18:26:27.927Z,47.36
2023-05-17T18:28:55.485Z,47.11
2023-05-17T18:31:23.104Z,47.32
2023-05-17T18:33:50.692Z,47.17
2023-05-17T18:36:18.433Z,47.29
2023-05-17T18:38:45.971Z,47.40
2023-05-17T18:41:13.537Z,47.91
2023-05-17T18:43:41.086Z,47.75
2023-05-17T18:46:08.759Z,48.11
2023-05-17T18:48:37.057Z,47.83
2023-05-17T18:51:04.717Z,48.17
2023-05-17T18:53:32.427Z,48.18
2023-05-17T18:56:02.544Z,48.24
2023-05-17T18:58:30.277Z,48.37
2023-05-17T19:00:58.062Z,48.70
2023-05-17T19:03:25.717Z,48.41
2023-05-17T19:05:53.481Z,48.94
2023-05-17T19:08:21.142Z,49.25
2023-05-17T19:10:48.817Z,49.34
2023-05-17T19:13:16.461Z,49.53
2023-05-17T19:15:44.032Z,50.19
2023-05-17T19:18:11.672Z,50.31
2023-05-17T19:20:39.312Z,49.84
2023-05-17T19:23:06.958Z,49.82
2023-05-17T19:25:34.730Z,50.15
2023-05-17T19:28:02.383Z,49.24
2023-05-17T19:30:32.742Z,49.62
2023-05-17T19:33:01.619Z,49.49
2023-05-17T19:35:30.093Z,49.33
2023-05-17T19:37:57.697Z,49.62
2023-05-17T19:40:25.399Z,50.37
2023-05-17T19:42:52.918Z,51.47
2023-05-17T19:45:21.062Z,51.73
2023-05-17T19:47:48.890Z,52.36
2023-05-17T19:50:16.948Z,53.45
2023-05-17T19:52:44.678Z,53.90
2023-05-17T19:55:15.850Z,55.24
2023-05-17T19:57:43.504Z,56.70
2023-05-17T20:00:11.672Z,57.66
2023-05-17T20:02:40.681Z,57.51
2023-05-17T20:05:08.831Z,59.52
2023-05-17T20:07:37.891Z,60.55
2023-05-17T20:10:06.486Z,60.90
2023-05-17T20:12:34.325Z,61.96
2023-05-17T20:15:02.061Z,61.71
2023-05-17T20:17:29.806Z,62.10
2023-05-17T20:19:57.428Z,64.07
2023-05-17T20:22:25.411Z,66.39
2023-05-17T20:24:53.748Z,65.08
2023-05-17T20:27:22.261Z,66.69
2023-05-17T20:29:49.905Z,64.59
2023-05-17T20:32:17.528Z,65.79
2023-05-17T20:34:45.228Z,66.84
2023-05-17T20:37:12.878Z,69.90
2023-05-17T20:39:40.606Z,72.14
2023-05-17T20:42:08.494Z,73.50
2023-05-17T20:44:36.174Z,76.01
2023-05-17T20:47:05.803Z,77.59
2023-05-17T20:49:33.415Z,77.96
2023-05-17T20:52:03.371Z,78.01
2023-05-17T20:54:31.474Z,78.66
2023-05-17T20:56:59.978Z,79.88
2023-05-17T20:59:27.618Z,79.84
2023-05-17T21:01:56.060Z,79.58
2023-05-17T21:04:23.837Z,79.90
2023-05-17T21:06:52.369Z,79.74
2023-05-17T21:09:19.936Z,79.73
2023-05-17T21:11:47.536Z,80.78
2023-05-17T21:14:15.248Z,81.82
2023-05-17T21:16:43.175Z,82.24
2023-05-17T21:19:11.075Z,80.28
2023-05-17T21:21:38.703Z,79.74
2023-05-17T21:24:06.893Z,81.90
2023-05-17T21:26:36.324Z,82.55
2023-05-17T21:29:06.208Z,82.44
2023-05-17T21:31:34.039Z,83.07
2023-05-17T21:34:01.675Z,84.01
2023-05-17T21:36:29.513Z,84.18
2023-05-17T21:38:57.234Z,82.90
2023-05-17T21:41:24.854Z,82.18
2023-05-17T21:43:52.453Z,82.55
2023-05-17T21:46:20.073Z,82.39
2023-05-17T21:48:47.676Z,82.67
2023-05-17T21:51:15.537Z,81.99
2023-05-17T21:53:43.158Z,84.76
2023-05-17T21:56:11.503Z,85.76
2023-05-17T21:58:39.201Z,88.04
2023-05-17T22:01:07.396Z,88.26
2023-05-17T22:03:35.136Z,88.01
2023-05-17T22:06:02.913Z,89.21
2023-05-17T22:08:32.208Z,89.12
2023-05-17T22:10:59.756Z,92.74
2023-05-17T22:13:27.654Z,93.11
2023-05-17T22:15:58.853Z,93.15
2023-05-17T22:18:27.664Z,93.06
2023-05-17T22:20:55.365Z,91.25
2023-05-17T22:23:23.090Z,93.14
2023-05-17T22:25:50.771Z,93.88
2023-05-17T22:28:18.578Z,91.12
2023-05-17T22:30:46.597Z,87.62
2023-05-17T22:33:14.697Z,91.05
2023-05-17T22:35:42.245Z,89.74
2023-05-17T22:38:11.370Z,90.32
2023-05-17T22:40:38.900Z,90.08
2023-05-17T22:43:08.327Z,90.34
2023-05-17T22:45:36.315Z,90.45
2023-05-17T22:48:05.881Z,90.77
2023-05-17T22:50:34.230Z,91.33
2023-05-17T22:53:01.766Z,91.96
2023-05-17T22:55:29.948Z,91.26
2023-05-17T22:57:58.162Z,90.89
2023-05-17T23:00:26.330Z,89.23
2023-05-17T23:02:54.029Z,88.23
2023-05-17T23:05:22.347Z,87.15
2023-05-17T23:07:49.887Z,86.21
2023-05-17T23:10:17.465Z,85.67
2023-05-17T23:12:45.281Z,86.38
2023-05-17T23:15:12.828Z,85.56
2023-05-17T23:17:41.277Z,85.68
2023-05-17T23:20:10.510Z,86.83
2023-05-17T23:22:39.314Z,86.77
2023-05-17T23:25:07.180Z,87.51
2023-05-17T23:27:35.783Z,87.37
2023-05-17T23:30:04.472Z,87.87
2023-05-17T23:32:32.759Z,88.27
2023-05-17T23:35:04.300Z,89.40
2023-05-17T23:37:36.270Z,90.95
2023-05-17T23:40:09.464Z,91.57
2023-05-17T23:42:37.845Z,91.51
2023-05-17T23:45:06.043Z,91.02
2023-05-17T23:47:33.934Z,92.39
2023-05-17T23:50:03.064Z,91.98
2023-05-17T23:52:32.741Z,91.47
2023-05-17T23:55:01.681Z,92.91
2023-05-17T23:57:29.767Z,98.12
2023-05-17T23:59:57.347Z,100.00
